sensor_id;sensor_type;location;lat;lon;timestamp;temperature;humidity
57108;DHT22;42987;52.916;6.542;2023-08-30T00:00:46;13.40;99.90
57108;DHT22;42987;52.916;6.542;2023-08-30T00:03:12;13.50;99.90
57108;DHT22;42987;52.916;6.542;2023-08-30T00:05:42;13.50;99.90
57108;DHT22;42987;52.916;6.542;2023-08-30T00:08:08;13.50;99.90
57108;DHT22;42987;52.916;6.542;2023-08-30T00:10:34;13.50;99.90
57108;DHT22;42987;52.916;6.542;2023-08-30T00:13:00;13.50;99.90
57108;DHT22;42987;52.916;6.542;2023-08-30T00:15:26;13.40;99.90
57108;DHT22;42987;52.916;6.542;2023-08-30T00:17:52;13.50;99.90
57108;DHT22;42987;52.916;6.542;2023-08-30T00:20:18;13.40;99.90
57108;DHT22;42987;52.916;6.542;2023-08-30T00:22:44;13.40;99.90
57108;DHT22;42987;52.916;6.542;2023-08-30T00:25:13;13.40;99.90
57108;DHT22;42987;52.916;6.542;2023-08-30T00:27:38;13.50;99.90
57108;DHT22;42987;52.916;6.542;2023-08-30T00:30:05;13.40;99.90
57108;DHT22;42987;52.916;6.542;2023-08-30T00:32:30;13.40;99.90
57108;DHT22;42987;52.916;6.542;2023-08-30T00:34:56;13.40;99.90
57108;DHT22;42987;52.916;6.542;2023-08-30T00:37:23;13.40;99.90
57108;DHT22;42987;52.916;6.542;2023-08-30T00:39:49;13.40;99.90
57108;DHT22;42987;52.916;6.542;2023-08-30T00:42:14;13.40;99.90
57108;DHT22;42987;52.916;6.542;2023-08-30T00:44:43;13.40;99.90
57108;DHT22;42987;52.916;6.542;2023-08-30T00:47:09;13.40;99.90
57108;DHT22;42987;52.916;6.542;2023-08-30T00:49:35;13.40;99.90
57108;DHT22;42987;52.916;6.542;2023-08-30T00:52:07;13.40;99.90
57108;DHT22;42987;52.916;6.542;2023-08-30T00:54:34;13.40;99.90
57108;DHT22;42987;52.916;6.542;2023-08-30T00:57:01;13.30;99.90
57108;DHT22;42987;52.916;6.542;2023-08-30T00:59:27;13.30;99.90
57108;DHT22;42987;52.916;6.542;2023-08-30T01:01:54;13.30;99.90
57108;DHT22;42987;52.916;6.542;2023-08-30T01:04:20;13.30;99.90
57108;DHT22;42987;52.916;6.542;2023-08-30T01:06:46;13.30;99.90
57108;DHT22;42987;52.916;6.542;2023-08-30T01:09:14;13.20;99.90
57108;DHT22;42987;52.916;6.542;2023-08-30T01:14:28;13.30;99.90
57108;DHT22;42987;52.916;6.542;2023-08-30T01:16:55;13.30;99.90
57108;DHT22;42987;52.916;6.542;2023-08-30T01:27:54;13.30;99.90
57108;DHT22;42987;52.916;6.542;2023-08-30T01:30:21;13.20;99.90
57108;DHT22;42987;52.916;6.542;2023-08-30T01:32:50;13.30;99.90
57108;DHT22;42987;52.916;6.542;2023-08-30T01:35:16;13.30;99.90
57108;DHT22;42987;52.916;6.542;2023-08-30T01:37:44;13.30;99.90
57108;DHT22;42987;52.916;6.542;2023-08-30T01:40:11;13.30;99.90
57108;DHT22;42987;52.916;6.542;2023-08-30T01:42:39;13.30;99.90
57108;DHT22;42987;52.916;6.542;2023-08-30T01:45:10;13.30;99.90
57108;DHT22;42987;52.916;6.542;2023-08-30T01:47:42;13.30;99.90
57108;DHT22;42987;52.916;6.542;2023-08-30T01:50:10;13.30;99.90
57108;DHT22;42987;52.916;6.542;2023-08-30T01:52:39;13.30;99.90
57108;DHT22;42987;52.916;6.542;2023-08-30T01:55:06;13.30;99.90
57108;DHT22;42987;52.916;6.542;2023-08-30T01:57:33;13.30;99.90
57108;DHT22;42987;52.916;6.542;2023-08-30T01:59:59;13.30;99.90
57108;DHT22;42987;52.916;6.542;2023-08-30T02:02:29;13.30;99.90
57108;DHT22;42987;52.916;6.542;2023-08-30T02:04:54;13.30;99.90
57108;DHT22;42987;52.916;6.542;2023-08-30T02:07:46;13.30;99.90
57108;DHT22;42987;52.916;6.542;2023-08-30T02:10:11;13.20;99.90
57108;DHT22;42987;52.916;6.542;2023-08-30T02:12:47;13.20;99.90
57108;DHT22;42987;52.916;6.542;2023-08-30T02:15:15;13.20;99.90
57108;DHT22;42987;52.916;6.542;2023-08-30T02:17:42;13.20;99.90
57108;DHT22;42987;52.916;6.542;2023-08-30T02:20:09;13.10;99.90
57108;DHT22;42987;52.916;6.542;2023-08-30T02:22:35;13.10;99.90
57108;DHT22;42987;52.916;6.542;2023-08-30T02:25:02;13.00;99.90
57108;DHT22;42987;52.916;6.542;2023-08-30T02:27:33;13.00;99.90
57108;DHT22;42987;52.916;6.542;2023-08-30T02:30:00;13.00;99.90
57108;DHT22;42987;52.916;6.542;2023-08-30T02:32:26;13.00;99.90
57108;DHT22;42987;52.916;6.542;2023-08-30T02:34:52;13.00;99.90
57108;DHT22;42987;52.916;6.542;2023-08-30T02:37:19;13.00;99.90
57108;DHT22;42987;52.916;6.542;2023-08-30T02:39:45;13.00;99.90
57108;DHT22;42987;52.916;6.542;2023-08-30T02:42:11;12.90;99.90
57108;DHT22;42987;52.916;6.542;2023-08-30T02:44:37;12.90;99.90
57108;DHT22;42987;52.916;6.542;2023-08-30T02:47:02;12.90;99.90
57108;DHT22;42987;52.916;6.542;2023-08-30T02:49:28;12.90;99.90
57108;DHT22;42987;52.916;6.542;2023-08-30T02:51:57;12.90;99.90
57108;DHT22;42987;52.916;6.542;2023-08-30T02:54:23;13.00;99.90
57108;DHT22;42987;52.916;6.542;2023-08-30T02:56:49;13.00;99.90
57108;DHT22;42987;52.916;6.542;2023-08-30T02:59:15;12.90;99.90
57108;DHT22;42987;52.916;6.542;2023-08-30T03:01:41;12.90;99.90
57108;DHT22;42987;52.916;6.542;2023-08-30T03:04:07;13.00;99.90
57108;DHT22;42987;52.916;6.542;2023-08-30T03:06:36;13.00;99.90
57108;DHT22;42987;52.916;6.542;2023-08-30T03:09:02;13.00;99.90
57108;DHT22;42987;52.916;6.542;2023-08-30T03:11:28;13.00;99.90
57108;DHT22;42987;52.916;6.542;2023-08-30T03:13:54;12.90;99.90
57108;DHT22;42987;52.916;6.542;2023-08-30T03:16:20;12.90;99.90
57108;DHT22;42987;52.916;6.542;2023-08-30T03:18:47;12.80;99.90
57108;DHT22;42987;52.916;6.542;2023-08-30T03:21:13;12.80;99.90
57108;DHT22;42987;52.916;6.542;2023-08-30T03:23:40;12.80;99.90
57108;DHT22;42987;52.916;6.542;2023-08-30T03:26:10;12.70;99.90
57108;DHT22;42987;52.916;6.542;2023-08-30T03:28:37;12.70;99.90
57108;DHT22;42987;52.916;6.542;2023-08-30T03:31:17;12.70;99.90
57108;DHT22;42987;52.916;6.542;2023-08-30T03:33:44;12.60;99.90
57108;DHT22;42987;52.916;6.542;2023-08-30T03:36:11;12.60;99.90
57108;DHT22;42987;52.916;6.542;2023-08-30T03:38:38;12.60;99.90
57108;DHT22;42987;52.916;6.542;2023-08-30T03:41:04;12.50;99.90
57108;DHT22;42987;52.916;6.542;2023-08-30T03:43:33;12.50;99.90
57108;DHT22;42987;52.916;6.542;2023-08-30T03:46:02;12.50;99.90
57108;DHT22;42987;52.916;6.542;2023-08-30T03:48:29;12.40;99.90
57108;DHT22;42987;52.916;6.542;2023-08-30T03:50:55;12.50;99.90
57108;DHT22;42987;52.916;6.542;2023-08-30T03:53:21;12.40;99.90
57108;DHT22;42987;52.916;6.542;2023-08-30T03:55:47;12.40;99.90
57108;DHT22;42987;52.916;6.542;2023-08-30T03:58:13;12.40;99.90
57108;DHT22;42987;52.916;6.542;2023-08-30T04:00:39;12.30;99.90
57108;DHT22;42987;52.916;6.542;2023-08-30T04:03:08;12.30;99.90
57108;DHT22;42987;52.916;6.542;2023-08-30T04:05:37;12.30;99.90
57108;DHT22;42987;52.916;6.542;2023-08-30T04:08:07;12.40;99.90
57108;DHT22;42987;52.916;6.542;2023-08-30T04:10:40;12.40;99.90
57108;DHT22;42987;52.916;6.542;2023-08-30T04:13:07;12.40;99.90
57108;DHT22;42987;52.916;6.542;2023-08-30T04:15:35;12.40;99.90
57108;DHT22;42987;52.916;6.542;2023-08-30T04:18:01;12.30;99.90
57108;DHT22;42987;52.916;6.542;2023-08-30T04:20:27;12.40;99.90
57108;DHT22;42987;52.916;6.542;2023-08-30T04:22:53;12.40;99.90
57108;DHT22;42987;52.916;6.542;2023-08-30T04:25:20;12.40;99.90
57108;DHT22;42987;52.916;6.542;2023-08-30T04:27:46;12.40;99.90
57108;DHT22;42987;52.916;6.542;2023-08-30T04:30:12;12.40;99.90
57108;DHT22;42987;52.916;6.542;2023-08-30T04:32:38;12.40;99.90
57108;DHT22;42987;52.916;6.542;2023-08-30T04:35:04;12.40;99.90
57108;DHT22;42987;52.916;6.542;2023-08-30T04:37:30;12.50;99.90
57108;DHT22;42987;52.916;6.542;2023-08-30T04:39:59;12.50;99.90
57108;DHT22;42987;52.916;6.542;2023-08-30T04:42:26;12.50;99.90
57108;DHT22;42987;52.916;6.542;2023-08-30T04:44:52;12.50;99.90
57108;DHT22;42987;52.916;6.542;2023-08-30T04:47:20;12.40;99.90
57108;DHT22;42987;52.916;6.542;2023-08-30T04:49:53;12.40;99.90
57108;DHT22;42987;52.916;6.542;2023-08-30T04:52:18;12.40;99.90
57108;DHT22;42987;52.916;6.542;2023-08-30T04:54:44;12.40;99.90
57108;DHT22;42987;52.916;6.542;2023-08-30T04:57:13;12.40;99.90
57108;DHT22;42987;52.916;6.542;2023-08-30T04:59:44;12.50;99.90
57108;DHT22;42987;52.916;6.542;2023-08-30T05:02:13;12.40;99.90
57108;DHT22;42987;52.916;6.542;2023-08-30T05:04:38;12.50;99.90
57108;DHT22;42987;52.916;6.542;2023-08-30T05:07:04;12.50;99.90
57108;DHT22;42987;52.916;6.542;2023-08-30T05:09:31;12.50;99.90
57108;DHT22;42987;52.916;6.542;2023-08-30T05:11:58;12.50;99.90
57108;DHT22;42987;52.916;6.542;2023-08-30T05:14:24;12.50;99.90
57108;DHT22;42987;52.916;6.542;2023-08-30T05:16:50;12.60;99.90
57108;DHT22;42987;52.916;6.542;2023-08-30T05:19:16;12.60;99.90
57108;DHT22;42987;52.916;6.542;2023-08-30T05:21:43;12.60;99.90
57108;DHT22;42987;52.916;6.542;2023-08-30T05:24:09;12.60;99.90
57108;DHT22;42987;52.916;6.542;2023-08-30T05:26:38;12.60;99.90
57108;DHT22;42987;52.916;6.542;2023-08-30T05:29:04;12.60;99.90
57108;DHT22;42987;52.916;6.542;2023-08-30T05:31:30;12.70;99.90
57108;DHT22;42987;52.916;6.542;2023-08-30T05:33:55;12.60;99.90
57108;DHT22;42987;52.916;6.542;2023-08-30T05:36:21;12.70;99.90
57108;DHT22;42987;52.916;6.542;2023-08-30T05:38:50;12.70;99.90
57108;DHT22;42987;52.916;6.542;2023-08-30T05:41:16;12.70;99.90
57108;DHT22;42987;52.916;6.542;2023-08-30T05:43:41;12.80;99.90
57108;DHT22;42987;52.916;6.542;2023-08-30T05:46:07;12.80;99.90
57108;DHT22;42987;52.916;6.542;2023-08-30T05:48:42;12.80;99.90
57108;DHT22;42987;52.916;6.542;2023-08-30T05:51:08;12.90;99.90
57108;DHT22;42987;52.916;6.542;2023-08-30T05:53:34;12.90;99.90
57108;DHT22;42987;52.916;6.542;2023-08-30T05:56:00;12.90;99.90
57108;DHT22;42987;52.916;6.542;2023-08-30T05:58:26;12.90;99.90
57108;DHT22;42987;52.916;6.542;2023-08-30T06:00:52;13.00;99.90
57108;DHT22;42987;52.916;6.542;2023-08-30T06:03:21;13.00;99.90
57108;DHT22;42987;52.916;6.542;2023-08-30T06:05:46;13.00;99.90
57108;DHT22;42987;52.916;6.542;2023-08-30T06:08:14;13.00;99.90
57108;DHT22;42987;52.916;6.542;2023-08-30T06:10:43;13.10;99.90
57108;DHT22;42987;52.916;6.542;2023-08-30T06:13:12;13.10;99.90
57108;DHT22;42987;52.916;6.542;2023-08-30T06:15:38;13.10;99.90
57108;DHT22;42987;52.916;6.542;2023-08-30T06:18:04;13.10;99.90
57108;DHT22;42987;52.916;6.542;2023-08-30T06:20:30;13.10;99.90
57108;DHT22;42987;52.916;6.542;2023-08-30T06:22:58;13.20;99.90
57108;DHT22;42987;52.916;6.542;2023-08-30T06:25:24;13.20;99.90
57108;DHT22;42987;52.916;6.542;2023-08-30T06:27:57;13.20;99.90
57108;DHT22;42987;52.916;6.542;2023-08-30T06:30:25;13.20;99.90
57108;DHT22;42987;52.916;6.542;2023-08-30T06:32:51;13.30;99.90
57108;DHT22;42987;52.916;6.542;2023-08-30T06:35:17;13.30;99.90
57108;DHT22;42987;52.916;6.542;2023-08-30T06:37:42;13.40;99.90
57108;DHT22;42987;52.916;6.542;2023-08-30T06:40:08;13.40;99.90
57108;DHT22;42987;52.916;6.542;2023-08-30T06:42:34;13.50;99.90
57108;DHT22;42987;52.916;6.542;2023-08-30T06:45:01;13.50;99.90
57108;DHT22;42987;52.916;6.542;2023-08-30T06:47:28;13.60;99.90
57108;DHT22;42987;52.916;6.542;2023-08-30T06:50:00;13.60;99.90
57108;DHT22;42987;52.916;6.542;2023-08-30T06:52:27;13.70;99.90
57108;DHT22;42987;52.916;6.542;2023-08-30T06:54:52;13.70;99.90
57108;DHT22;42987;52.916;6.542;2023-08-30T06:57:18;13.70;99.90
57108;DHT22;42987;52.916;6.542;2023-08-30T06:59:44;13.70;99.90
57108;DHT22;42987;52.916;6.542;2023-08-30T07:02:10;13.80;99.90
57108;DHT22;42987;52.916;6.542;2023-08-30T07:04:36;13.80;99.90
57108;DHT22;42987;52.916;6.542;2023-08-30T07:07:01;13.70;99.90
57108;DHT22;42987;52.916;6.542;2023-08-30T07:09:28;13.80;99.90
57108;DHT22;42987;52.916;6.542;2023-08-30T07:11:55;13.80;99.90
57108;DHT22;42987;52.916;6.542;2023-08-30T07:14:21;13.80;99.90
57108;DHT22;42987;52.916;6.542;2023-08-30T07:16:46;13.90;99.90
57108;DHT22;42987;52.916;6.542;2023-08-30T07:19:17;13.90;99.90
57108;DHT22;42987;52.916;6.542;2023-08-30T07:21:43;13.90;99.90
57108;DHT22;42987;52.916;6.542;2023-08-30T07:24:09;13.90;99.90
57108;DHT22;42987;52.916;6.542;2023-08-30T07:26:36;14.00;99.90
57108;DHT22;42987;52.916;6.542;2023-08-30T07:29:02;14.00;99.90
57108;DHT22;42987;52.916;6.542;2023-08-30T07:31:33;14.10;99.90
57108;DHT22;42987;52.916;6.542;2023-08-30T07:33:59;14.20;99.90
57108;DHT22;42987;52.916;6.542;2023-08-30T07:36:29;14.20;99.90
57108;DHT22;42987;52.916;6.542;2023-08-30T07:39:01;14.30;99.90
57108;DHT22;42987;52.916;6.542;2023-08-30T07:41:27;14.40;99.90
57108;DHT22;42987;52.916;6.542;2023-08-30T07:43:53;14.50;99.90
57108;DHT22;42987;52.916;6.542;2023-08-30T07:46:19;14.60;99.90
57108;DHT22;42987;52.916;6.542;2023-08-30T07:48:45;14.80;99.90
57108;DHT22;42987;52.916;6.542;2023-08-30T07:51:13;14.90;99.90
57108;DHT22;42987;52.916;6.542;2023-08-30T07:53:42;15.00;99.90
57108;DHT22;42987;52.916;6.542;2023-08-30T07:56:08;15.10;99.90
57108;DHT22;42987;52.916;6.542;2023-08-30T07:58:37;15.20;99.90
57108;DHT22;42987;52.916;6.542;2023-08-30T08:01:03;15.30;99.90
57108;DHT22;42987;52.916;6.542;2023-08-30T08:03:29;15.30;99.90
57108;DHT22;42987;52.916;6.542;2023-08-30T08:05:54;15.40;99.90
57108;DHT22;42987;52.916;6.542;2023-08-30T08:08:20;15.50;99.90
57108;DHT22;42987;52.916;6.542;2023-08-30T08:10:49;15.50;99.90
57108;DHT22;42987;52.916;6.542;2023-08-30T08:13:14;15.60;99.90
57108;DHT22;42987;52.916;6.542;2023-08-30T08:15:43;15.60;99.90
57108;DHT22;42987;52.916;6.542;2023-08-30T08:18:12;15.70;99.90
57108;DHT22;42987;52.916;6.542;2023-08-30T08:20:37;15.70;99.90
57108;DHT22;42987;52.916;6.542;2023-08-30T08:23:05;15.70;99.90
57108;DHT22;42987;52.916;6.542;2023-08-30T08:25:30;15.70;99.90
57108;DHT22;42987;52.916;6.542;2023-08-30T08:27:56;15.70;99.90
57108;DHT22;42987;52.916;6.542;2023-08-30T08:30:22;15.60;99.90
57108;DHT22;42987;52.916;6.542;2023-08-30T08:32:48;15.70;99.90
57108;DHT22;42987;52.916;6.542;2023-08-30T08:35:14;15.60;99.90
57108;DHT22;42987;52.916;6.542;2023-08-30T08:37:40;15.70;99.90
57108;DHT22;42987;52.916;6.542;2023-08-30T08:40:06;15.70;99.90
57108;DHT22;42987;52.916;6.542;2023-08-30T08:42:35;15.70;99.90
57108;DHT22;42987;52.916;6.542;2023-08-30T08:45:02;15.80;99.90
57108;DHT22;42987;52.916;6.542;2023-08-30T08:47:32;15.80;99.90
57108;DHT22;42987;52.916;6.542;2023-08-30T08:49:59;15.80;99.90
57108;DHT22;42987;52.916;6.542;2023-08-30T08:52:26;15.80;99.90
57108;DHT22;42987;52.916;6.542;2023-08-30T08:54:52;15.80;99.90
57108;DHT22;42987;52.916;6.542;2023-08-30T08:57:21;15.80;99.90
57108;DHT22;42987;52.916;6.542;2023-08-30T08:59:47;15.70;99.90
57108;DHT22;42987;52.916;6.542;2023-08-30T09:02:14;15.70;99.90
57108;DHT22;42987;52.916;6.542;2023-08-30T09:04:43;15.60;99.90
57108;DHT22;42987;52.916;6.542;2023-08-30T09:07:09;15.60;99.90
57108;DHT22;42987;52.916;6.542;2023-08-30T09:09:35;15.60;99.90
57108;DHT22;42987;52.916;6.542;2023-08-30T09:12:02;15.50;99.90
57108;DHT22;42987;52.916;6.542;2023-08-30T09:14:28;15.50;99.90
57108;DHT22;42987;52.916;6.542;2023-08-30T09:17:03;15.40;99.90
57108;DHT22;42987;52.916;6.542;2023-08-30T09:19:29;15.50;99.90
57108;DHT22;42987;52.916;6.542;2023-08-30T09:21:58;15.40;99.90
57108;DHT22;42987;52.916;6.542;2023-08-30T09:24:24;15.40;99.90
57108;DHT22;42987;52.916;6.542;2023-08-30T09:26:52;15.30;99.90
57108;DHT22;42987;52.916;6.542;2023-08-30T09:29:19;15.30;99.90
57108;DHT22;42987;52.916;6.542;2023-08-30T09:31:45;15.20;99.90
57108;DHT22;42987;52.916;6.542;2023-08-30T09:34:11;15.20;99.90
57108;DHT22;42987;52.916;6.542;2023-08-30T09:39:11;15.10;99.90
57108;DHT22;42987;52.916;6.542;2023-08-30T09:41:41;15.00;99.90
57108;DHT22;42987;52.916;6.542;2023-08-30T09:44:12;15.00;99.90
57108;DHT22;42987;52.916;6.542;2023-08-30T09:46:45;14.90;99.90
57108;DHT22;42987;52.916;6.542;2023-08-30T09:49:12;14.80;99.90
57108;DHT22;42987;52.916;6.542;2023-08-30T09:51:39;14.80;99.90
57108;DHT22;42987;52.916;6.542;2023-08-30T09:54:22;14.80;99.90
57108;DHT22;42987;52.916;6.542;2023-08-30T09:56:48;14.80;99.90
57108;DHT22;42987;52.916;6.542;2023-08-30T09:59:18;14.80;99.90
57108;DHT22;42987;52.916;6.542;2023-08-30T10:01:48;14.80;99.90
57108;DHT22;42987;52.916;6.542;2023-08-30T10:04:15;14.80;99.90
57108;DHT22;42987;52.916;6.542;2023-08-30T10:06:41;14.90;99.90
57108;DHT22;42987;52.916;6.542;2023-08-30T10:09:08;14.90;99.90
57108;DHT22;42987;52.916;6.542;2023-08-30T10:11:36;15.00;99.90
57108;DHT22;42987;52.916;6.542;2023-08-30T10:14:06;15.10;99.90
57108;DHT22;42987;52.916;6.542;2023-08-30T10:16:51;15.20;99.90
57108;DHT22;42987;52.916;6.542;2023-08-30T10:21:48;15.30;99.90
57108;DHT22;42987;52.916;6.542;2023-08-30T10:24:19;15.30;99.90
57108;DHT22;42987;52.916;6.542;2023-08-30T10:26:46;15.40;99.90
57108;DHT22;42987;52.916;6.542;2023-08-30T10:29:14;15.40;99.90
57108;DHT22;42987;52.916;6.542;2023-08-30T10:31:41;15.50;99.90
57108;DHT22;42987;52.916;6.542;2023-08-30T10:34:14;15.60;99.90
57108;DHT22;42987;52.916;6.542;2023-08-30T10:36:44;15.60;99.90
57108;DHT22;42987;52.916;6.542;2023-08-30T10:39:14;15.70;99.90
57108;DHT22;42987;52.916;6.542;2023-08-30T10:41:57;15.70;99.90
57108;DHT22;42987;52.916;6.542;2023-08-30T10:44:23;15.70;99.90
57108;DHT22;42987;52.916;6.542;2023-08-30T10:46:53;15.60;99.90
57108;DHT22;42987;52.916;6.542;2023-08-30T10:49:20;15.60;99.90
57108;DHT22;42987;52.916;6.542;2023-08-30T10:51:55;15.50;99.90
57108;DHT22;42987;52.916;6.542;2023-08-30T10:54:22;15.50;99.90
57108;DHT22;42987;52.916;6.542;2023-08-30T10:56:55;15.50;99.90
57108;DHT22;42987;52.916;6.542;2023-08-30T10:59:27;15.40;99.90
57108;DHT22;42987;52.916;6.542;2023-08-30T11:01:53;15.40;99.90
57108;DHT22;42987;52.916;6.542;2023-08-30T11:04:20;15.40;99.90
57108;DHT22;42987;52.916;6.542;2023-08-30T11:06:48;15.40;99.90
57108;DHT22;42987;52.916;6.542;2023-08-30T11:09:17;15.30;99.90
57108;DHT22;42987;52.916;6.542;2023-08-30T11:11:46;15.30;99.90
57108;DHT22;42987;52.916;6.542;2023-08-30T11:14:13;15.30;99.90
57108;DHT22;42987;52.916;6.542;2023-08-30T11:16:39;15.30;99.90
57108;DHT22;42987;52.916;6.542;2023-08-30T11:19:06;15.30;99.90
57108;DHT22;42987;52.916;6.542;2023-08-30T11:21:35;15.30;99.90
57108;DHT22;42987;52.916;6.542;2023-08-30T11:24:06;15.30;99.90
57108;DHT22;42987;52.916;6.542;2023-08-30T11:26:32;15.20;99.90
57108;DHT22;42987;52.916;6.542;2023-08-30T11:29:04;15.20;99.90
57108;DHT22;42987;52.916;6.542;2023-08-30T11:31:31;15.20;99.90
57108;DHT22;42987;52.916;6.542;2023-08-30T11:33:58;15.20;99.90
57108;DHT22;42987;52.916;6.542;2023-08-30T11:36:26;15.20;99.90
57108;DHT22;42987;52.916;6.542;2023-08-30T11:38:53;15.10;99.90
57108;DHT22;42987;52.916;6.542;2023-08-30T11:41:25;15.10;99.90
57108;DHT22;42987;52.916;6.542;2023-08-30T11:43:52;15.00;99.90
57108;DHT22;42987;52.916;6.542;2023-08-30T11:46:19;15.00;99.90
57108;DHT22;42987;52.916;6.542;2023-08-30T11:48:47;15.00;99.90
57108;DHT22;42987;52.916;6.542;2023-08-30T11:51:13;15.00;99.90
57108;DHT22;42987;52.916;6.542;2023-08-30T11:53:39;15.00;99.90
57108;DHT22;42987;52.916;6.542;2023-08-30T11:56:12;15.00;99.90
57108;DHT22;42987;52.916;6.542;2023-08-30T11:58:38;15.00;99.90
57108;DHT22;42987;52.916;6.542;2023-08-30T12:01:04;15.00;99.90
57108;DHT22;42987;52.916;6.542;2023-08-30T12:03:31;15.00;99.90
57108;DHT22;42987;52.916;6.542;2023-08-30T12:05:58;15.00;99.90
57108;DHT22;42987;52.916;6.542;2023-08-30T12:08:29;15.00;99.90
57108;DHT22;42987;52.916;6.542;2023-08-30T12:10:56;15.10;99.90
57108;DHT22;42987;52.916;6.542;2023-08-30T12:14:01;15.20;99.90
57108;DHT22;42987;52.916;6.542;2023-08-30T12:16:17;15.20;99.90
57108;DHT22;42987;52.916;6.542;2023-08-30T12:18:44;15.20;99.90
57108;DHT22;42987;52.916;6.542;2023-08-30T12:21:10;15.20;99.90
57108;DHT22;42987;52.916;6.542;2023-08-30T12:23:38;15.20;99.90
57108;DHT22;42987;52.916;6.542;2023-08-30T12:26:06;15.20;99.90
57108;DHT22;42987;52.916;6.542;2023-08-30T12:28:34;15.20;99.90
57108;DHT22;42987;52.916;6.542;2023-08-30T12:31:00;15.20;99.90
57108;DHT22;42987;52.916;6.542;2023-08-30T12:33:27;15.20;99.90
57108;DHT22;42987;52.916;6.542;2023-08-30T12:35:54;15.20;99.90
57108;DHT22;42987;52.916;6.542;2023-08-30T12:38:21;15.20;99.90
57108;DHT22;42987;52.916;6.542;2023-08-30T12:40:49;15.20;99.90
57108;DHT22;42987;52.916;6.542;2023-08-30T12:43:16;15.30;99.90
57108;DHT22;42987;52.916;6.542;2023-08-30T12:45:45;15.20;99.90
57108;DHT22;42987;52.916;6.542;2023-08-30T12:48:12;15.30;99.90
57108;DHT22;42987;52.916;6.542;2023-08-30T12:50:42;15.20;99.90
57108;DHT22;42987;52.916;6.542;2023-08-30T12:53:08;15.30;99.90
57108;DHT22;42987;52.916;6.542;2023-08-30T12:55:35;15.20;99.90
57108;DHT22;42987;52.916;6.542;2023-08-30T12:58:01;15.20;99.90
57108;DHT22;42987;52.916;6.542;2023-08-30T13:00:28;15.30;99.90
57108;DHT22;42987;52.916;6.542;2023-08-30T13:02:54;15.20;99.90
57108;DHT22;42987;52.916;6.542;2023-08-30T13:05:20;15.20;99.90
57108;DHT22;42987;52.916;6.542;2023-08-30T13:07:47;15.10;99.90
57108;DHT22;42987;52.916;6.542;2023-08-30T13:10:14;15.10;99.90
57108;DHT22;42987;52.916;6.542;2023-08-30T13:12:43;15.10;99.90
57108;DHT22;42987;52.916;6.542;2023-08-30T13:15:09;15.10;99.90
57108;DHT22;42987;52.916;6.542;2023-08-30T13:17:35;15.20;99.90
57108;DHT22;42987;52.916;6.542;2023-08-30T13:20:01;15.20;99.90
57108;DHT22;42987;52.916;6.542;2023-08-30T13:22:27;15.20;99.90
57108;DHT22;42987;52.916;6.542;2023-08-30T13:24:54;15.20;99.90
57108;DHT22;42987;52.916;6.542;2023-08-30T13:27:20;15.20;99.90
57108;DHT22;42987;52.916;6.542;2023-08-30T13:29:46;15.30;99.90
57108;DHT22;42987;52.916;6.542;2023-08-30T13:32:12;15.30;99.90
57108;DHT22;42987;52.916;6.542;2023-08-30T13:34:38;15.20;99.90
57108;DHT22;42987;52.916;6.542;2023-08-30T13:37:04;15.30;99.90
57108;DHT22;42987;52.916;6.542;2023-08-30T13:39:30;15.30;99.90
57108;DHT22;42987;52.916;6.542;2023-08-30T13:42:05;15.30;99.90
57108;DHT22;42987;52.916;6.542;2023-08-30T13:44:31;15.30;99.90
57108;DHT22;42987;52.916;6.542;2023-08-30T13:46:57;15.30;99.90
57108;DHT22;42987;52.916;6.542;2023-08-30T13:49:23;15.20;99.90
57108;DHT22;42987;52.916;6.542;2023-08-30T13:51:49;15.20;99.90
57108;DHT22;42987;52.916;6.542;2023-08-30T13:54:15;15.20;99.90
57108;DHT22;42987;52.916;6.542;2023-08-30T13:56:47;15.10;99.90
57108;DHT22;42987;52.916;6.542;2023-08-30T13:59:13;15.10;99.90
57108;DHT22;42987;52.916;6.542;2023-08-30T14:01:39;15.10;99.90
57108;DHT22;42987;52.916;6.542;2023-08-30T14:04:05;15.20;99.90
57108;DHT22;42987;52.916;6.542;2023-08-30T14:06:34;15.20;99.90
57108;DHT22;42987;52.916;6.542;2023-08-30T14:09:00;15.20;99.90
57108;DHT22;42987;52.916;6.542;2023-08-30T14:11:26;15.30;99.90
57108;DHT22;42987;52.916;6.542;2023-08-30T14:13:52;15.30;99.90
57108;DHT22;42987;52.916;6.542;2023-08-30T14:16:18;15.40;99.90
57108;DHT22;42987;52.916;6.542;2023-08-30T14:18:44;15.40;99.90
57108;DHT22;42987;52.916;6.542;2023-08-30T14:21:12;15.50;99.90
57108;DHT22;42987;52.916;6.542;2023-08-30T14:23:38;15.60;99.90
57108;DHT22;42987;52.916;6.542;2023-08-30T14:26:06;15.60;99.90
57108;DHT22;42987;52.916;6.542;2023-08-30T14:28:39;15.60;99.90
57108;DHT22;42987;52.916;6.542;2023-08-30T14:31:08;15.70;99.90
57108;DHT22;42987;52.916;6.542;2023-08-30T14:33:37;15.80;99.90
57108;DHT22;42987;52.916;6.542;2023-08-30T14:36:08;15.90;99.90
57108;DHT22;42987;52.916;6.542;2023-08-30T14:38:34;15.90;99.90
57108;DHT22;42987;52.916;6.542;2023-08-30T14:41:02;16.00;99.90
57108;DHT22;42987;52.916;6.542;2023-08-30T14:43:28;16.00;99.90
57108;DHT22;42987;52.916;6.542;2023-08-30T14:46:05;16.00;99.90
57108;DHT22;42987;52.916;6.542;2023-08-30T14:48:34;16.00;99.90
57108;DHT22;42987;52.916;6.542;2023-08-30T14:51:02;16.00;99.90
57108;DHT22;42987;52.916;6.542;2023-08-30T14:53:28;16.00;99.90
57108;DHT22;42987;52.916;6.542;2023-08-30T14:55:54;16.10;99.90
57108;DHT22;42987;52.916;6.542;2023-08-30T14:58:21;16.10;99.90
57108;DHT22;42987;52.916;6.542;2023-08-30T15:00:48;16.20;99.90
57108;DHT22;42987;52.916;6.542;2023-08-30T15:03:14;16.30;99.90
57108;DHT22;42987;52.916;6.542;2023-08-30T15:05:43;16.20;99.90
57108;DHT22;42987;52.916;6.542;2023-08-30T15:08:08;16.20;99.90
57108;DHT22;42987;52.916;6.542;2023-08-30T15:10:34;16.20;99.90
57108;DHT22;42987;52.916;6.542;2023-08-30T15:13:00;16.20;99.90
57108;DHT22;42987;52.916;6.542;2023-08-30T15:15:26;16.20;99.90
57108;DHT22;42987;52.916;6.542;2023-08-30T15:17:52;16.10;99.90
57108;DHT22;42987;52.916;6.542;2023-08-30T15:20:17;16.10;99.90
57108;DHT22;42987;52.916;6.542;2023-08-30T15:22:43;16.20;99.90
57108;DHT22;42987;52.916;6.542;2023-08-30T15:25:09;16.30;99.90
57108;DHT22;42987;52.916;6.542;2023-08-30T15:27:35;16.30;99.90
57108;DHT22;42987;52.916;6.542;2023-08-30T15:30:02;16.30;99.90
57108;DHT22;42987;52.916;6.542;2023-08-30T15:32:28;16.40;99.90
57108;DHT22;42987;52.916;6.542;2023-08-30T15:34:54;16.40;99.90
57108;DHT22;42987;52.916;6.542;2023-08-30T15:37:20;16.30;99.90
57108;DHT22;42987;52.916;6.542;2023-08-30T15:39:46;16.20;99.90
57108;DHT22;42987;52.916;6.542;2023-08-30T15:42:26;16.20;99.90
57108;DHT22;42987;52.916;6.542;2023-08-30T15:44:51;16.20;99.90
57108;DHT22;42987;52.916;6.542;2023-08-30T15:47:17;16.20;99.90